| time (UTC) | temp F | wind direction | speed MPH | gust MPH | rain 1hr in | rain 24hr in | rain mn in | humidity % | barometer mb |
| 20260903050035 | 0 | 144 | 10.0 | 21.0 | 0.01 | 0.04 | 0.04 | 1005.7 | |
| 20260903044530 | 0 | 181 | 9.0 | 17.0 | 0.01 | 0.04 | 0.04 | 1005.7 | |
| 20260903043027 | 0 | 202 | 9.0 | 19.0 | 0.01 | 0.04 | 0.04 | 1005.5 | |
| 20260903041522 | 0 | 205 | 6.0 | 14.0 | 0.00 | 0.03 | 0.03 | 1005.3 | |
| 20260903040018 | 0 | 192 | 10.0 | 17.0 | 0.00 | 0.03 | 0.03 | 1005.2 | |
| 20260903034515 | 0 | 180 | 10.0 | 19.0 | 0.00 | 0.03 | 0.03 | 1004.8 | |
| 20260903033008 | 0 | 209 | 10.0 | 16.0 | 0.00 | 0.03 | 0.03 | 1004.5 | |
| 20260903031516 | 0 | 191 | 13.0 | 19.0 | 0.00 | 0.03 | 0.03 | 1004.2 | |
| 20260903030100 | 0 | 188 | 8.0 | 18.0 | 0.00 | 0.03 | 0.03 | 1003.9 | |
| 20260903024556 | 0 | 179 | 15.0 | 21.0 | 0.00 | 0.03 | 0.03 | 1003.4 | |
| 20260903023107 | 0 | 209 | 19.0 | 29.0 | 0.00 | 0.03 | 0.03 | 1002.8 | |
| 20260903021549 | 0 | 192 | 18.0 | 28.0 | 0.00 | 0.03 | 0.03 | 1002.6 | |
| 20260903020042 | 0 | 189 | 19.0 | 27.0 | 0.00 | 0.03 | 0.03 | 1002.5 | |
| 20260903014537 | 0 | 211 | 17.0 | 27.0 | 0.00 | 0.03 | 0.03 | 1002.1 | |
| 20260903013034 | 0 | 200 | 18.0 | 29.0 | 0.00 | 0.03 | 0.03 | 1001.7 | |
| 20260903011529 | 0 | 167 | 22.0 | 37.0 | 0.00 | 0.03 | 0.03 | 1001.7 | |
| 20260903010025 | 0 | 192 | 14.0 | 24.0 | 0.01 | 0.03 | 0.03 | 1001.7 | |
| 20260903004529 | 0 | 181 | 12.0 | 20.0 | 0.02 | 0.03 | 0.03 | 1001.9 | |
| 20260903003018 | 0 | 187 | 8.0 | 16.0 | 0.03 | 0.03 | 0.03 | 1002.1 | |
| 20260903001512 | 0 | 206 | 12.0 | 26.0 | 0.03 | 0.03 | 0.03 | 1002.4 | |
| 20260903000007 | 0 | 215 | 12.0 | 28.0 | 0.02 | 0.02 | 0.02 | 1002.7 | |
| 20260902234504 | 0 | 192 | 17.0 | 23.0 | 0.01 | 0.01 | 0.01 | 1002.8 | |
| 20260902233058 | 0 | 202 | 16.0 | 27.0 | 0.00 | 0.00 | 0.00 | 1002.9 | |
| 20260902231600 | 0 | 201 | 17.0 | 24.0 | 0.00 | 0.00 | 0.00 | 1002.8 | |
| 20260902230049 | 0 | 178 | 16.0 | 25.0 | 0.00 | 0.00 | 0.00 | 1002.7 | |
| 20260902224544 | 0 | 206 | 20.0 | 28.0 | 0.00 | 0.00 | 0.00 | 1002.8 | |
| 20260902223041 | 0 | 186 | 18.0 | 28.0 | 0.00 | 0.00 | 0.00 | 1002.7 | |
| 20260902221545 | 0 | 198 | 18.0 | 29.0 | 0.00 | 0.00 | 0.00 | 1002.7 | |
| 20260902220033 | 0 | 192 | 18.0 | 25.0 | 0.00 | 0.00 | 0.00 | 1002.8 | |
| 20260902214527 | 0 | 187 | 16.0 | 25.0 | 0.00 | 0.00 | 0.00 | 1003.0 | |
| 20260902213023 | 0 | 178 | 17.0 | 27.0 | 0.00 | 0.00 | 0.00 | 1002.9 | |
| 20260902211518 | 0 | 231 | 13.0 | 21.0 | 0.00 | 0.00 | 0.00 | 1002.9 | |
| 20260902210014 | 0 | 180 | 17.0 | 26.0 | 0.00 | 0.00 | 0.00 | 1002.9 | |
| 20260902204510 | 0 | 214 | 21.0 | 33.0 | 0.00 | 0.00 | 0.00 | 1002.9 | |
| 20260902203007 | 0 | 165 | 19.0 | 32.0 | 0.00 | 0.00 | 0.00 | 1003.1 | |
| 20260902201500 | 0 | 189 | 15.0 | 27.0 | 0.00 | 0.00 | 0.00 | 1003.0 | |
| 20260902200057 | 0 | 163 | 16.0 | 29.0 | 0.00 | 0.00 | 0.00 | 1003.1 | |
| 20260902194552 | 0 | 200 | 20.0 | 35.0 | 0.00 | 0.00 | 0.00 | 1003.3 | |
| 20260902193057 | 0 | 188 | 18.0 | 31.0 | 0.00 | 0.00 | 0.00 | 1003.5 | |
| 20260902191548 | 0 | 167 | 19.0 | 27.0 | 0.00 | 0.00 | 0.00 | 1003.5 | |
| 20260902190039 | 0 | 209 | 21.0 | 28.0 | 0.00 | 0.00 | 0.00 | 1003.8 | |
| 20260902184534 | 0 | 180 | 19.0 | 33.0 | 0.00 | 0.00 | 0.00 | 1004.0 | |
| 20260902183031 | 0 | 0.0 | 0.0 | 0.00 | 0.00 | 0.00 | 1004.2 | ||
| 20260902181526 | 0 | 0.0 | 0.0 | 0.00 | 0.00 | 0.00 | 1004.2 | ||
| 20260902180021 | 0 | 0.0 | 0.0 | 0.00 | 0.00 | 0.00 | 1004.3 | ||
| 20260902174517 | 0 | 0.0 | 0.0 | 0.00 | 0.00 | 0.00 | 1004.1 | ||
| 20260902173012 | 0 | 0.0 | 0.0 | 0.00 | 0.00 | 0.00 | 1004.4 | ||
| 20260902171507 | 0 | 0.0 | 0.0 | 0.00 | 0.00 | 0.00 | 1004.6 | ||
| 20260902170003 | 0 | 0.0 | 0.0 | 0.00 | 0.00 | 0.00 | 1004.9 | ||
| 20260902164600 | 0 | 0.0 | 0.0 | 0.00 | 0.00 | 0.00 | 1005.0 | ||
| 20260902163054 | 0 | 0.0 | 0.0 | 0.00 | 0.00 | 0.00 | 1005.0 | ||
| 20260902161549 | 0 | 0.0 | 0.0 | 0.00 | 0.00 | 0.00 | 1005.1 | ||
| 20260902160050 | 0 | 0.0 | 0.0 | 0.00 | 0.00 | 0.00 | 1005.2 | ||
| 20260902154553 | 0 | 0.0 | 0.0 | 0.00 | 0.00 | 0.00 | 1005.2 | ||
| 20260902153036 | 0 | 0.0 | 0.0 | 0.00 | 0.00 | 0.00 | 1004.9 | ||
| 20260902151531 | 0 | 0.0 | 0.0 | 0.00 | 0.00 | 0.00 | 1004.8 | ||
| 20260902150027 | 0 | 0.0 | 0.0 | 0.00 | 0.00 | 0.00 | 1004.9 | ||
| 20260902144522 | 0 | 0.0 | 0.0 | 0.00 | 0.00 | 0.00 | 1005.2 | ||
| 20260902143019 | 0 | 0.0 | 0.0 | 0.00 | 0.00 | 0.00 | 1005.5 | ||
| 20260902141513 | 0 | 0.0 | 0.0 | 0.00 | 0.00 | 0.00 | 1005.6 | ||
| 20260902140010 | 0 | 0.0 | 0.0 | 0.00 | 0.00 | 0.00 | 1005.6 | ||
| 20260902134504 | 0 | 180 | 12.0 | 21.0 | 0.00 | 0.00 | 0.00 | 1005.7 | |
| 20260902133059 | 0 | 191 | 14.0 | 21.0 | 0.00 | 0.00 | 0.00 | 1005.7 | |
| 20260902131552 | 0 | 150 | 13.0 | 21.0 | 0.00 | 0.00 | 0.00 | 1005.8 | |
| 20260902130048 | 0 | 202 | 17.0 | 23.0 | 0.00 | 0.00 | 0.00 | 1005.8 | |
| 20260902124544 | 0 | 190 | 14.0 | 25.0 | 0.00 | 0.00 | 0.00 | 1005.9 | |
| 20260902123039 | 0 | 201 | 17.0 | 24.0 | 0.00 | 0.00 | 0.00 | 1006.1 | |
| 20260902121537 | 0 | 234 | 11.0 | 21.0 | 0.00 | 0.00 | 0.00 | 1006.1 | |
| 20260902120030 | 0 | 185 | 9.0 | 21.0 | 0.00 | 0.00 | 0.00 | 1006.3 | |
| 20260902114551 | 0 | 191 | 13.0 | 18.0 | 0.00 | 0.00 | 0.00 | 1006.3 | |
| 20260902113021 | 0 | 198 | 9.0 | 17.0 | 0.00 | 0.00 | 0.00 | 1006.5 | |
| 20260902111517 | 0 | 205 | 7.0 | 14.0 | 0.00 | 0.00 | 0.00 | 1006.6 | |
| 20260902110013 | 0 | 198 | 9.0 | 19.0 | 0.00 | 0.00 | 0.00 | 1006.8 | |
| 20260902104508 | 0 | 207 | 11.0 | 22.0 | 0.00 | 0.00 | 0.00 | 1006.9 | |
| 20260902103009 | 0 | 190 | 9.0 | 16.0 | 0.00 | 0.00 | 0.00 | 1007.0 | |
| 20260902101559 | 0 | 183 | 9.0 | 17.0 | 0.00 | 0.00 | 0.00 | 1007.1 | |
| 20260902100122 | 0 | 202 | 8.0 | 17.0 | 0.00 | 0.00 | 0.00 | 1007.1 | |
| 20260902094608 | 0 | 195 | 6.0 | 14.0 | 0.00 | 0.00 | 0.00 | 1007.2 | |
| 20260902093107 | 0 | 193 | 7.0 | 14.0 | 0.00 | 0.00 | 0.00 | 1007.4 | |
| 20260902091541 | 0 | 180 | 9.0 | 15.0 | 0.00 | 0.00 | 0.00 | 1007.5 | |
| 20260902090038 | 0 | 192 | 9.0 | 15.0 | 0.00 | 0.00 | 0.00 | 1007.6 | |
| 20260902084534 | 0 | 188 | 5.0 | 14.0 | 0.00 | 0.00 | 0.00 | 1007.9 | |
| 20260902083037 | 0 | 171 | 9.0 | 14.0 | 0.00 | 0.00 | 0.00 | 1007.9 | |
| 20260902081524 | 0 | 170 | 8.0 | 17.0 | 0.00 | 0.00 | 0.00 | 1007.8 | |
| 20260902080020 | 0 | 193 | 8.0 | 15.0 | 0.00 | 0.00 | 0.00 | 1007.9 | |
| 20260902074523 | 0 | 202 | 11.0 | 19.0 | 0.00 | 0.00 | 0.00 | 1008.0 | |
| 20260902073011 | 0 | 187 | 11.0 | 17.0 | 0.00 | 0.00 | 0.00 | 1008.1 | |
| 20260902071507 | 0 | 186 | 10.0 | 14.0 | 0.00 | 0.00 | 0.00 | 1008.2 | |
| 20260902070006 | 0 | 180 | 10.0 | 15.0 | 0.00 | 0.00 | 0.00 | 1008.3 | |
| 20260902064558 | 0 | 205 | 7.0 | 17.0 | 0.00 | 0.00 | 0.00 | 1008.3 | |
| 20260902063054 | 0 | 190 | 8.0 | 14.0 | 0.00 | 0.00 | 0.00 | 1008.4 | |
| 20260902061604 | 0 | 202 | 9.0 | 12.0 | 0.00 | 0.00 | 0.00 | 1008.5 | |
| 20260902060054 | 0 | 184 | 11.0 | 17.0 | 0.00 | 0.00 | 0.00 | 1008.5 | |
| 20260902054542 | 0 | 190 | 10.0 | 14.0 | 0.00 | 0.00 | 0.00 | 1008.6 | |
| 20260902053040 | 0 | 191 | 5.0 | 10.0 | 0.00 | 0.00 | 0.00 | 1008.8 | |
| 20260902051539 | 0 | 178 | 4.0 | 6.0 | 0.00 | 0.00 | 0.00 | 1008.8 |